Time;durP1;ratioP1;P1;durP2;ratioP2;P2;SDS_P1;SDS_P2;PMS_P1;PMS_P2;Temp;Humidity;BMP_temperature;BMP_pressure;BME280_temperature;BME280_humidity;BME280_pressure;Samples;Min_cycle;Max_cycle;Signal;HPM_P1;HPM_P2
2021/06/07 01:27:51;;;;;;;10.70;8.57;;;;;;;17.43;79.40;100211.59;2208330;40;20596;-88
2021/06/07 01:29:22;;;;;;;10.75;8.68;;;;;;;17.43;79.50;100211.59;2214746;40;20022;-88
2021/06/07 01:30:55;;;;;;;9.93;8.35;;;;;;;17.38;79.73;100210.50;2202971;40;20037;-85
2021/06/07 01:32:26;;;;;;;11.52;8.52;;;;;;;17.35;80.39;100208.16;2222884;40;20240;-87
2021/06/07 01:33:58;;;;;;;11.68;8.48;;;;;;;17.30;80.58;100206.81;2222686;40;20057;-86
2021/06/07 01:35:29;;;;;;;10.30;8.07;;;;;;;17.30;80.62;100206.81;2222873;40;20021;-86
2021/06/07 01:37:00;;;;;;;11.88;8.30;;;;;;;17.28;80.91;100202.63;2222745;40;20026;-88
2021/06/07 01:38:32;;;;;;;11.10;8.90;;;;;;;17.29;81.08;100212.44;2221082;40;20030;-87
2021/06/07 01:40:05;;;;;;;9.90;7.47;;;;;;;17.24;81.10;100212.16;2210038;40;20042;-86
2021/06/07 01:41:37;;;;;;;12.05;9.23;;;;;;;17.20;81.28;100210.84;2203979;40;20027;-88
2021/06/07 01:43:09;;;;;;;12.00;8.70;;;;;;;17.16;81.89;100207.66;2201010;40;20035;-87
2021/06/07 01:44:41;;;;;;;10.13;8.18;;;;;;;17.14;81.72;100204.31;2197326;40;20102;-90
2021/06/07 01:46:12;;;;;;;12.15;9.07;;;;;;;17.19;81.84;100203.75;2185661;40;20032;-87
2021/06/07 01:47:44;;;;;;;12.95;9.93;;;;;;;17.15;81.92;100200.59;2182157;40;20029;-88
2021/06/07 01:49:16;;;;;;;12.98;8.60;;;;;;;17.13;82.19;100199.91;2179773;40;20125;-88
2021/06/07 01:50:50;;;;;;;11.15;9.05;;;;;;;17.14;81.94;100204.31;2173768;40;20028;-88
2021/06/07 01:52:21;;;;;;;10.98;8.70;;;;;;;17.08;82.26;100202.34;2152136;40;20029;-89
2021/06/07 01:53:52;;;;;;;10.40;7.90;;;;;;;17.10;82.42;100205.69;2179104;40;20044;-87
2021/06/07 01:55:27;;;;;;;10.20;7.45;;;;;;;17.10;82.67;100211.06;2173934;40;20040;-87
2021/06/07 01:57:06;;;;;;;9.70;7.50;;;;;;;17.10;82.71;100200.28;2178443;40;20040;-87
2021/06/07 01:58:40;;;;;;;11.32;8.23;;;;;;;17.15;82.80;100203.28;2134900;40;20053;-87
2021/06/07 02:00:15;;;;;;;10.88;8.70;;;;;;;17.13;82.66;100202.63;2166231;41;20037;-86
2021/06/07 02:41:53;;;;;;;15.63;10.30;;;;;;;17.14;82.86;100193.50;2220168;40;20135;-84
2021/06/07 03:05:07;;;;;;;10.48;7.90;;;;;;;17.13;82.83;100202.63;2219524;40;20053;-83
2021/06/07 03:30:10;;;;;;;12.40;8.27;;;;;;;17.13;82.70;100200.78;2214118;40;20045;-81
2021/06/07 03:31:41;;;;;;;8.95;7.03;;;;;;;17.14;82.64;100199.72;2170581;40;20051;-81
2021/06/07 03:33:13;;;;;;;11.48;9.25;;;;;;;17.12;82.73;100199.09;2195923;40;20035;-82
2021/06/07 03:34:43;;;;;;;12.70;9.63;;;;;;;17.10;82.86;100200.28;2185502;40;20042;-81
2021/06/07 03:36:15;;;;;;;9.65;8.05;;;;;;;17.08;83.01;100199.66;2185214;40;20030;-82
2021/06/07 03:37:46;;;;;;;12.40;9.05;;;;;;;17.09;82.78;100193.22;2196994;40;20042;-78
2021/06/07 03:39:18;;;;;;;10.65;8.38;;;;;;;17.06;83.18;100197.09;2204575;40;20049;-80
2021/06/07 03:40:52;;;;;;;10.85;7.85;;;;;;;17.05;83.13;100197.31;2209410;40;20415;-78
2021/06/07 03:42:23;;;;;;;9.25;7.43;;;;;;;17.07;83.20;100192.56;2208016;40;20034;-79
2021/06/07 03:43:54;;;;;;;10.27;8.18;;;;;;;17.07;83.24;100195.25;2209326;40;20027;-79
2021/06/07 03:45:26;;;;;;;10.13;8.50;;;;;;;17.09;83.11;100199.44;2207441;40;20046;-79
2021/06/07 03:46:59;;;;;;;9.40;6.85;;;;;;;17.08;83.02;100202.34;2209314;40;20482;-81
2021/06/07 03:48:30;;;;;;;12.23;8.48;;;;;;;17.11;83.28;100201.97;2208289;40;20030;-86
2021/06/07 03:50:03;;;;;;;8.85;6.55;;;;;;;17.13;83.27;100200.78;2202369;40;20054;-81
2021/06/07 03:51:35;;;;;;;10.25;8.20;;;;;;;17.12;83.16;100199.09;2200785;40;20027;-81
2021/06/07 03:53:08;;;;;;;9.30;6.85;;;;;;;17.12;83.07;100209.03;2203377;40;20031;-83
2021/06/07 03:54:39;;;;;;;8.40;6.55;;;;;;;17.13;83.07;100194.53;2202311;40;20042;-83
2021/06/07 03:56:10;;;;;;;7.10;5.97;;;;;;;17.14;83.05;100202.44;2203565;40;20510;-83
2021/06/07 03:57:41;;;;;;;7.60;5.78;;;;;;;17.17;82.68;100200.38;2201921;40;20039;-87
2021/06/07 03:59:14;;;;;;;8.70;6.55;;;;;;;17.19;82.95;100201.03;2203753;40;20043;-85
2021/06/07 04:00:47;;;;;;;9.75;6.30;;;;;;;17.19;82.60;100201.91;2181988;40;20055;-83
2021/06/07 04:02:18;;;;;;;7.88;5.93;;;;;;;17.20;82.77;100195.44;2197458;40;20016;-82
2021/06/07 04:03:50;;;;;;;8.20;5.97;;;;;;;17.23;82.83;100202.38;2183486;40;20034;-84
2021/06/07 04:05:22;;;;;;;7.90;5.68;;;;;;;17.23;82.74;100194.28;2197969;40;20062;-85
2021/06/07 04:07:03;;;;;;;7.10;5.25;;;;;;;17.24;82.49;100201.34;2171012;40;20093;-82
2021/06/07 04:08:35;;;;;;;;;;;;;;;17.21;82.59;100201.72;2195439;40;20042;-81
2021/06/07 04:10:10;;;;;;;7.10;4.97;;;;;;;17.23;82.30;100203.19;2190276;40;20022;-80
2021/06/07 04:11:41;;;;;;;5.75;4.63;;;;;;;17.19;82.44;100196.50;2203059;40;20665;-80
2021/06/07 04:13:13;;;;;;;8.93;5.32;;;;;;;17.19;82.46;100192.94;2205055;40;20708;-84
2021/06/07 04:14:44;;;;;;;6.70;4.85;;;;;;;17.19;82.52;100193.81;2210840;40;20034;-81
2021/06/07 04:16:16;;;;;;;11.00;6.38;;;;;;;17.20;82.29;100195.44;2206958;40;20050;-84
2021/06/07 04:17:48;;;;;;;7.50;5.72;;;;;;;17.21;82.36;100193.59;2208720;40;20027;-84
2021/06/07 04:19:19;;;;;;;7.25;5.25;;;;;;;17.17;82.42;100201.25;2209010;40;20046;-84
2021/06/07 04:20:50;;;;;;;7.40;5.05;;;;;;;17.21;82.17;100193.59;2210154;40;20045;-84
2021/06/07 04:22:21;;;;;;;6.70;4.68;;;;;;;17.21;82.18;100189.03;2208649;40;20050;-80
2021/06/07 04:23:53;;;;;;;6.68;4.80;;;;;;;17.25;82.20;100193.06;2209804;40;20031;-80
2021/06/07 04:25:26;;;;;;;6.45;5.30;;;;;;;17.28;82.26;100194.53;2208755;40;20047;-80
2021/06/07 04:26:57;;;;;;;6.85;5.68;;;;;;;17.31;82.24;100194.19;2213799;40;20018;-79
2021/06/07 04:28:28;;;;;;;7.68;5.30;;;;;;;17.28;81.97;100192.69;2214286;40;20030;-80
2021/06/07 04:29:59;;;;;;;6.82;4.85;;;;;;;17.33;82.27;100193.97;2216273;40;20692;-83
2021/06/07 04:31:32;;;;;;;6.18;4.45;;;;;;;17.34;81.87;100198.38;2211651;40;20729;-83
2021/06/07 04:33:04;;;;;;;7.57;6.22;;;;;;;17.36;81.85;100201.72;2222049;40;20099;-80
2021/06/07 04:34:36;;;;;;;9.20;4.63;;;;;;;17.35;81.63;100197.34;2170379;40;20042;-80
2021/06/07 04:36:07;;;;;;;7.38;5.20;;;;;;;17.39;81.59;100196.78;2195978;40;20178;-81
2021/06/07 04:37:42;;;;;;;7.10;5.28;;;;;;;17.38;81.85;100189.69;2175213;40;20219;-81
2021/06/07 04:39:13;;;;;;;6.78;5.75;;;;;;;17.39;81.66;100193.22;2200218;40;20123;-81
2021/06/07 04:40:45;;;;;;;7.97;5.03;;;;;;;17.34;81.49;100196.47;2215364;40;20064;-83
2021/06/07 04:42:16;;;;;;;7.88;6.25;;;;;;;17.39;81.78;100193.22;2214925;40;20042;-83
2021/06/07 04:43:47;;;;;;;8.00;5.82;;;;;;;17.40;81.49;100189.50;2201393;40;20037;-82
2021/06/07 04:45:19;;;;;;;7.97;5.85;;;;;;;17.40;81.63;100194.91;2205200;40;20465;-80
2021/06/07 04:47:05;;;;;;;6.88;5.00;;;;;;;17.41;81.48;100194.75;2181738;40;20419;-83
2021/06/07 04:50:27;;;;;;;7.43;5.38;;;;;;;17.46;81.30;100188.78;2263710;39;20126;-81
2021/06/07 04:51:58;;;;;;;11.82;5.40;;;;;;;17.43;81.43;100194.53;2241783;39;20306;-79
2021/06/07 04:53:30;;;;;;;7.35;4.90;;;;;;;17.43;81.17;100186.44;2235225;39;20110;-81
2021/06/07 04:55:01;;;;;;;6.93;5.60;;;;;;;17.47;81.29;100193.16;2230839;39;20051;-82
2021/06/07 04:56:32;;;;;;;7.35;5.57;;;;;;;17.48;81.23;100189.41;2232612;40;20037;-80
2021/06/07 04:58:06;;;;;;;7.80;6.00;;;;;;;17.44;81.31;100186.25;2231408;39;20056;-79
2021/06/07 04:59:38;;;;;;;7.22;5.40;;;;;;;17.43;81.24;100189.97;2233475;40;20047;-82
2021/06/07 05:01:12;;;;;;;7.35;5.28;;;;;;;17.44;81.11;100191.66;2231987;39;20053;-83
2021/06/07 05:02:43;;;;;;;9.98;6.78;;;;;;;17.45;81.16;100181.69;2232818;40;20047;-79
2021/06/07 05:04:14;;;;;;;7.85;6.07;;;;;;;17.47;81.25;100185.06;2230876;39;20051;-80
2021/06/07 05:05:47;;;;;;;7.90;5.20;;;;;;;17.44;81.29;100194.34;2232764;40;20073;-79
2021/06/07 05:07:19;;;;;;;8.18;6.50;;;;;;;17.44;81.29;100190.81;2225208;39;20041;-83
2021/06/07 05:08:51;;;;;;;7.70;5.70;;;;;;;17.43;81.36;100192.66;2226651;40;20026;-84
2021/06/07 05:10:23;;;;;;;8.02;5.38;;;;;;;17.45;81.59;100187.91;2225614;39;20059;-81
2021/06/07 05:11:54;;;;;;;7.40;4.60;;;;;;;17.43;81.39;100183.75;2226864;40;20076;-80
2021/06/07 05:13:26;;;;;;;7.22;5.20;;;;;;;17.47;81.34;100195.88;2224249;39;20061;-82
2021/06/07 05:14:59;;;;;;;7.07;5.32;;;;;;;17.48;81.55;100192.09;2226741;40;20054;-83
2021/06/07 05:16:30;;;;;;;8.43;4.95;;;;;;;17.48;81.33;100186.69;2225162;39;20045;-83
2021/06/07 05:18:02;;;;;;;7.03;4.97;;;;;;;17.52;81.07;100192.59;2226267;40;20029;-81
2021/06/07 05:19:34;;;;;;;7.53;4.93;;;;;;;17.50;81.14;100195.47;2227547;39;20048;-79
2021/06/07 05:21:07;;;;;;;8.05;5.70;;;;;;;17.47;81.27;100193.16;2233019;40;20087;-82
2021/06/07 05:22:37;;;;;;;6.82;4.70;;;;;;;17.48;81.55;100194.81;2225246;40;20048;-82
2021/06/07 05:24:09;;;;;;;6.53;5.20;;;;;;;17.49;81.19;100196.50;2225265;39;20037;-81
2021/06/07 05:25:42;;;;;;;6.35;4.63;;;;;;;17.49;81.37;100199.19;2226765;40;20061;-82
2021/06/07 05:27:13;;;;;;;7.32;4.90;;;;;;;17.50;81.17;100195.47;2225460;39;20040;-82
2021/06/07 05:28:44;;;;;;;6.85;4.88;;;;;;;17.49;81.48;100199.19;2232344;40;20028;-82
2021/06/07 05:30:17;;;;;;;6.55;4.47;;;;;;;17.49;81.45;100196.50;2230668;39;20099;-82
2021/06/07 05:31:48;;;;;;;6.38;4.75;;;;;;;17.49;81.43;100201.91;2225775;40;20038;-82
2021/06/07 05:33:20;;;;;;;5.55;4.50;;;;;;;17.51;81.21;100202.56;2225466;39;20033;-82
2021/06/07 05:34:51;;;;;;;6.32;4.00;;;;;;;17.51;81.08;100199.03;2232133;40;20106;-80
2021/06/07 05:36:24;;;;;;;8.38;5.93;;;;;;;17.51;81.04;100204.44;2232225;39;20028;-81
2021/06/07 05:37:57;;;;;;;5.78;4.60;;;;;;;17.51;81.14;100207.13;2233247;40;20029;-81
2021/06/07 05:39:28;;;;;;;9.30;5.15;;;;;;;17.52;81.36;100198.84;2232993;39;20080;-81
2021/06/07 05:41:00;;;;;;;6.78;4.88;;;;;;;17.51;81.38;100197.16;2231587;40;20064;-81
2021/06/07 05:42:32;;;;;;;7.32;5.63;;;;;;;17.53;81.49;100200.50;2230465;39;20105;-80
2021/06/07 05:44:04;;;;;;;7.55;5.43;;;;;;;17.50;81.00;100202.75;2231395;40;20037;-80
2021/06/07 05:45:35;;;;;;;6.88;5.78;;;;;;;17.45;80.99;100197.91;2228269;39;20079;-80
2021/06/07 05:47:07;;;;;;;7.15;5.20;;;;;;;17.42;80.94;100199.13;2225663;40;20049;-82
2021/06/07 05:48:38;;;;;;;7.70;4.80;;;;;;;17.41;80.87;100210.94;2223647;39;20041;-83
2021/06/07 05:50:12;;;;;;;6.50;5.05;;;;;;;17.42;81.25;100215.34;2225087;40;20525;-83
2021/06/07 05:51:45;;;;;;;7.30;5.20;;;;;;;17.40;80.82;100205.72;2223922;39;20037;-82
2021/06/07 05:53:18;;;;;;;8.48;5.60;;;;;;;17.39;81.21;100215.69;2225502;40;20037;-82
2021/06/07 05:54:48;;;;;;;8.73;4.97;;;;;;;17.38;81.11;100214.03;2223978;39;20045;-82
2021/06/07 05:56:20;;;;;;;8.77;5.93;;;;;;;17.37;81.31;100204.22;2225026;40;20026;-82
2021/06/07 05:57:53;;;;;;;6.45;4.38;;;;;;;17.37;81.31;100206.94;2224427;39;20068;-82
2021/06/07 05:59:24;;;;;;;8.43;5.53;;;;;;;17.40;81.28;100211.13;2225268;40;20040;-83
2021/06/07 06:00:55;;;;;;;7.95;5.97;;;;;;;17.41;81.27;100210.09;2222082;39;20349;-81
2021/06/07 06:02:26;;;;;;;13.43;6.88;;;;;;;17.42;80.90;100219.88;2221312;40;20030;-83
2021/06/07 06:03:58;;;;;;;8.45;6.28;;;;;;;17.43;80.92;100218.88;2220007;40;20052;-83
2021/06/07 06:05:29;;;;;;;6.82;5.65;;;;;;;17.45;81.08;100214.94;2221467;40;20503;-84
2021/06/07 06:07:03;;;;;;;7.38;4.88;;;;;;;17.45;81.07;100214.13;2219838;40;20433;-82
2021/06/07 06:08:35;;;;;;;7.70;5.18;;;;;;;17.48;80.93;100211.03;2221223;40;20045;-83
2021/06/07 06:10:08;;;;;;;6.28;5.18;;;;;;;17.50;81.04;100211.69;2219545;39;20057;-81
2021/06/07 06:11:39;;;;;;;7.40;5.43;;;;;;;17.52;80.87;100215.03;2221503;40;20041;-83
2021/06/07 06:13:11;;;;;;;7.00;5.53;;;;;;;17.52;80.65;100209.63;2219737;39;20429;-83
2021/06/07 06:14:42;;;;;;;8.15;6.28;;;;;;;17.54;80.96;100215.69;2220573;40;20061;-83
2021/06/07 06:16:13;;;;;;;8.02;5.25;;;;;;;17.56;80.49;100215.50;2219344;39;20053;-83
2021/06/07 06:17:46;;;;;;;6.25;4.63;;;;;;;17.59;80.63;100215.97;2221592;40;20029;-83
2021/06/07 06:19:17;;;;;;;10.57;7.00;;;;;;;17.60;80.49;100220.34;2220151;39;20049;-82
2021/06/07 06:20:48;;;;;;;8.35;6.38;;;;;;;17.53;80.44;100205.91;2221529;40;20037;-83
2021/06/07 06:22:21;;;;;;;7.55;5.43;;;;;;;17.55;80.52;100208.41;2220161;39;20057;-79
2021/06/07 06:23:53;;;;;;;7.13;5.13;;;;;;;17.59;80.56;100221.38;2228367;40;20038;-79
2021/06/07 06:25:23;;;;;;;7.18;5.75;;;;;;;17.62;80.69;100218.31;2226706;39;20033;-80
2021/06/07 06:26:55;;;;;;;7.80;5.53;;;;;;;17.64;80.51;100211.88;2228482;40;20033;-83
2021/06/07 06:28:26;;;;;;;9.20;6.75;;;;;;;17.64;80.40;100214.59;2226849;39;20420;-81
2021/06/07 06:29:57;;;;;;;7.60;6.07;;;;;;;17.61;80.68;100216.63;2227618;40;20029;-80
2021/06/07 06:31:28;;;;;;;7.80;6.47;;;;;;;17.57;80.49;100214.47;2226253;40;20044;-80
2021/06/07 06:33:00;;;;;;;7.90;6.03;;;;;;;17.59;80.77;100221.38;2227498;40;20044;-80
2021/06/07 06:34:31;;;;;;;8.82;6.65;;;;;;;17.62;80.65;100220.16;2225943;39;20048;-81
2021/06/07 06:36:03;;;;;;;8.15;5.80;;;;;;;17.64;80.41;100217.28;2225853;40;20029;-80
2021/06/07 06:37:36;;;;;;;8.40;6.97;;;;;;;17.66;80.70;100226.06;2226048;39;20033;-79
2021/06/07 06:39:09;;;;;;;8.40;6.45;;;;;;;17.65;80.78;100218.97;2225439;39;20033;-80
2021/06/07 06:40:41;;;;;;;9.80;7.10;;;;;;;17.63;80.46;100219.13;2221173;40;20496;-80
2021/06/07 06:42:13;;;;;;;9.20;6.70;;;;;;;17.65;80.62;100224.38;2215812;39;20041;-80
2021/06/07 06:43:45;;;;;;;7.38;5.75;;;;;;;17.66;80.77;100226.88;2217133;40;20083;-80
2021/06/07 06:45:16;;;;;;;9.60;6.65;;;;;;;17.72;80.83;100236.09;2197547;39;20105;-80
2021/06/07 06:46:48;;;;;;;8.23;6.28;;;;;;;17.72;80.56;100230.69;2237361;40;20043;-82
2021/06/07 06:48:19;;;;;;;7.88;5.80;;;;;;;17.77;80.37;100229.13;2209764;39;20336;-79
2021/06/07 06:49:50;;;;;;;9.13;7.65;;;;;;;17.80;80.28;100227.91;2233315;40;20049;-80
2021/06/07 06:51:23;;;;;;;9.18;5.80;;;;;;;17.81;80.45;100228.72;2204374;39;20033;-80
2021/06/07 06:52:56;;;;;;;12.10;8.68;;;;;;;17.84;80.30;100226.50;2221145;40;20418;-81
2021/06/07 06:54:27;;;;;;;36.13;31.23;;;;;;;17.87;80.56;100233.41;2218972;40;20127;-83
2021/06/07 06:55:58;;;;;;;17.02;12.32;;;;;;;17.89;80.12;100225.94;2225717;40;20038;-82
2021/06/07 06:57:29;;;;;;;10.70;8.98;;;;;;;17.88;80.24;100233.19;2225797;39;20045;-82
2021/06/07 06:59:02;;;;;;;11.80;9.38;;;;;;;17.85;80.43;100230.03;2227778;40;20068;-81
2021/06/07 07:00:36;;;;;;;10.65;8.63;;;;;;;17.84;80.45;100229.22;2217243;39;21764;-80
2021/06/07 07:02:08;;;;;;;14.40;11.00;;;;;;;17.80;80.15;100235.19;2232826;40;20032;-83
2021/06/07 07:03:39;;;;;;;13.02;10.38;;;;;;;17.78;80.42;100232.66;2227670;39;20143;-82
2021/06/07 07:05:12;;;;;;;12.88;9.15;;;;;;;17.80;80.43;100227.91;2229829;40;20031;-82
2021/06/07 07:06:43;;;;;;;15.88;10.88;;;;;;;17.85;80.40;100221.94;2225769;40;20049;-82
2021/06/07 07:08:19;;;;;;;13.70;10.70;;;;;;;17.86;80.37;100237.13;2226717;40;20021;-80
2021/06/07 07:09:50;;;;;;;11.70;9.45;;;;;;;17.86;80.16;100227.13;2225525;40;20060;-79
2021/06/07 07:11:22;;;;;;;14.27;11.40;;;;;;;17.88;80.11;100241.31;2228191;40;20029;-80
2021/06/07 07:12:53;;;;;;;12.30;9.13;;;;;;;17.87;80.21;100231.53;2226395;39;20037;-80
2021/06/07 07:14:24;;;;;;;15.25;10.43;;;;;;;17.96;79.95;100236.81;2227555;40;20044;-82
2021/06/07 07:15:56;;;;;;;11.90;10.10;;;;;;;18.00;80.12;100227.34;2225705;39;20055;-84
2021/06/07 07:17:28;;;;;;;15.23;11.35;;;;;;;18.02;79.80;100230.69;2226835;40;20037;-83
2021/06/07 07:18:59;;;;;;;13.52;11.02;;;;;;;18.07;79.84;100236.38;2219565;39;20057;-82
2021/06/07 07:20:31;;;;;;;14.25;10.05;;;;;;;18.08;79.82;100235.34;2221424;40;20673;-82
2021/06/07 07:22:04;;;;;;;17.75;12.38;;;;;;;18.08;79.70;100236.19;2219496;39;20049;-83
2021/06/07 07:23:36;;;;;;;17.77;12.93;;;;;;;18.08;79.73;100241.63;2220342;40;20037;-82
2021/06/07 07:25:09;;;;;;;18.23;13.60;;;;;;;18.11;79.55;100239.53;2217398;40;20072;-83
2021/06/07 07:26:41;;;;;;;20.42;15.00;;;;;;;18.04;79.39;100237.59;2220554;40;20045;-84
2021/06/07 07:28:11;;;;;;;17.95;11.90;;;;;;;18.04;79.44;100236.78;2202596;40;20052;-81
2021/06/07 07:29:43;;;;;;;15.75;11.40;;;;;;;18.11;79.26;100243.09;2220088;40;20041;-83
2021/06/07 07:31:14;;;;;;;14.98;11.45;;;;;;;18.15;79.31;100233.56;2216292;40;20392;-83
2021/06/07 07:32:48;;;;;;;15.68;11.35;;;;;;;18.16;78.97;100239.81;2221912;40;20372;-83
2021/06/07 07:34:20;;;;;;;21.13;14.38;;;;;;;18.16;78.64;100245.22;2213020;40;20046;-84
2021/06/07 07:35:51;;;;;;;19.17;14.13;;;;;;;18.10;78.70;100241.41;2214082;40;20040;-83
2021/06/07 07:37:22;;;;;;;17.80;12.98;;;;;;;18.04;79.14;100248.41;2212234;40;20057;-84
2021/06/07 07:38:55;;;;;;;18.63;13.25;;;;;;;18.04;79.10;100247.59;2214226;40;20038;-84
2021/06/07 07:40:27;;;;;;;16.50;12.57;;;;;;;18.07;79.33;100244.50;2218079;40;20119;-84
2021/06/07 07:41:57;;;;;;;21.75;16.83;;;;;;;18.08;79.23;100246.16;2219992;40;20416;-83
2021/06/07 07:43:29;;;;;;;17.05;13.95;;;;;;;18.11;79.25;100245.81;2218744;40;20053;-82
2021/06/07 07:45:01;;;;;;;16.98;13.13;;;;;;;18.13;79.08;100241.03;2220385;40;20040;-84
2021/06/07 07:46:33;;;;;;;16.83;12.65;;;;;;;18.18;79.09;100251.28;2217845;40;20049;-82
2021/06/07 07:48:07;;;;;;;21.65;14.55;;;;;;;18.21;78.64;100242.78;2220130;40;20033;-83
2021/06/07 07:49:38;;;;;;;21.10;16.40;;;;;;;18.13;78.66;100248.31;2218671;40;20048;-86
2021/06/07 07:51:09;;;;;;;19.50;14.60;;;;;;;18.08;79.13;100246.16;2218814;40;20026;-83
2021/06/07 07:52:41;;;;;;;13.73;10.93;;;;;;;18.09;79.10;100253.25;2219861;40;20129;-83
2021/06/07 07:54:14;;;;;;;12.25;9.73;;;;;;;18.18;79.00;100246.72;2202379;40;20026;-84
2021/06/07 07:55:46;;;;;;;21.42;15.50;;;;;;;18.26;78.81;100244.91;2199127;40;20041;-83
2021/06/07 07:57:17;;;;;;;15.43;11.63;;;;;;;18.27;78.52;100250.16;2208022;39;20033;-79
2021/06/07 07:58:48;;;;;;;16.88;12.52;;;;;;;18.28;78.76;100250.97;2232356;40;20037;-79
2021/06/07 08:00:21;;;;;;;20.10;13.75;;;;;;;18.29;78.44;100242.66;2223600;39;20132;-80
2021/06/07 08:01:53;;;;;;;19.25;13.23;;;;;;;18.32;78.53;100252.28;2227144;40;20068;-79
2021/06/07 08:03:24;;;;;;;25.75;19.25;;;;;;;18.30;78.13;100248.94;2186486;39;20033;-79
2021/06/07 08:04:55;;;;;;;28.33;19.45;;;;;;;18.26;78.79;100253.03;2202821;40;20025;-80
2021/06/07 08:06:26;;;;;;;19.05;14.23;;;;;;;18.28;78.50;100243.69;2206143;39;22857;-79
2021/06/07 08:07:57;;;;;;;16.67;14.02;;;;;;;18.35;78.29;100250.03;2225714;40;20037;-80
2021/06/07 08:09:31;;;;;;;14.85;11.48;;;;;;;18.37;78.59;100247.13;2202006;40;20041;-79
2021/06/07 08:11:03;;;;;;;14.65;11.18;;;;;;;18.44;78.18;100244.50;2221609;40;20026;-79
2021/06/07 08:12:35;;;;;;;21.88;14.50;;;;;;;18.49;78.21;100242.03;2213618;40;20050;-79
2021/06/07 08:14:07;;;;;;;15.13;10.75;;;;;;;18.51;78.03;100240.00;2219636;40;20021;-81
2021/06/07 08:15:38;;;;;;;16.48;13.13;;;;;;;18.58;78.02;100250.88;2223046;39;20033;-80
2021/06/07 08:17:10;;;;;;;14.20;11.27;;;;;;;18.63;77.83;100245.72;2227679;40;20385;-79
2021/06/07 08:18:42;;;;;;;17.45;13.07;;;;;;;18.71;77.54;100245.59;2226851;40;20545;-80
2021/06/07 08:20:17;;;;;;;16.85;12.00;;;;;;;18.74;77.63;100250.63;2228033;40;20051;-80
2021/06/07 08:21:49;;;;;;;18.20;12.90;;;;;;;18.77;77.62;100246.69;2211510;39;20077;-79
2021/06/07 08:23:21;;;;;;;16.48;11.82;;;;;;;18.84;77.14;100245.72;2221726;40;20045;-80
2021/06/07 08:24:53;;;;;;;16.60;12.65;;;;;;;18.92;77.19;100246.63;2217934;39;20041;-80
2021/06/07 08:26:24;;;;;;;23.50;17.20;;;;;;;18.85;76.38;100250.13;2221745;40;20025;-80
2021/06/07 08:27:56;;;;;;;23.92;17.27;;;;;;;18.62;77.00;100246.75;2220180;40;20053;-79
2021/06/07 08:29:27;;;;;;;18.77;16.10;;;;;;;18.50;77.61;100244.56;2221992;40;20152;-80
2021/06/07 08:30:58;;;;;;;21.92;15.90;;;;;;;18.53;77.67;100251.47;2224509;40;20045;-79
2021/06/07 08:32:29;;;;;;;16.48;12.00;;;;;;;18.59;77.59;100253.41;2225261;40;20033;-80
2021/06/07 08:34:00;;;;;;;21.38;14.45;;;;;;;18.70;77.51;100247.47;2221894;40;20052;-82
2021/06/07 08:35:32;;;;;;;16.63;12.55;;;;;;;18.71;77.10;100245.59;2225252;40;20037;-83
2021/06/07 08:37:03;;;;;;;18.10;12.98;;;;;;;18.78;77.27;100249.22;2224243;40;20368;-83
2021/06/07 08:38:35;;;;;;;17.83;13.32;;;;;;;18.84;77.07;100243.03;2227765;40;20383;-83
2021/06/07 08:40:13;;;;;;;18.98;13.43;;;;;;;18.91;76.73;100239.53;2226738;40;20095;-79
2021/06/07 08:41:44;;;;;;;19.35;13.60;;;;;;;18.95;76.82;100241.69;2227922;40;20025;-78
2021/06/07 08:43:15;;;;;;;17.15;12.27;;;;;;;19.00;76.75;100232.97;2225784;39;20083;-80
2021/06/07 08:44:47;;;;;;;15.98;11.82;;;;;;;19.04;76.70;100245.09;2226703;40;20087;-83
2021/06/07 08:46:18;;;;;;;18.15;14.20;;;;;;;19.09;76.21;100239.09;2225234;40;20477;-83
2021/06/07 08:47:51;;;;;;;18.42;12.95;;;;;;;19.09;76.18;100245.34;2226103;40;20037;-83
2021/06/07 08:49:23;;;;;;;19.95;12.70;;;;;;;19.09;76.35;100239.91;2218226;40;20034;-83
2021/06/07 08:50:56;;;;;;;17.40;12.27;;;;;;;19.13;76.16;100243.94;2219570;40;20044;-83
2021/06/07 08:52:27;;;;;;;20.48;15.23;;;;;;;19.18;75.82;100244.16;2218650;40;20057;-83
2021/06/07 08:53:59;;;;;;;17.08;11.95;;;;;;;19.17;76.03;100238.94;2219506;40;20038;-83
2021/06/07 08:55:34;;;;;;;18.25;12.10;;;;;;;19.20;75.66;100245.84;2218040;40;20047;-83
2021/06/07 08:57:06;;;;;;;18.50;14.00;;;;;;;19.27;75.82;100244.03;2219616;40;20040;-83
2021/06/07 08:58:39;;;;;;;18.42;13.65;;;;;;;19.30;75.73;100238.19;2210462;40;20581;-83
2021/06/07 09:00:14;;;;;;;18.00;13.85;;;;;;;19.33;75.20;100245.94;2217624;40;20037;-83
2021/06/07 09:01:45;;;;;;;17.73;11.57;;;;;;;19.35;75.42;100235.75;2219746;40;20033;-83
2021/06/07 09:03:20;;;;;;;14.93;12.00;;;;;;;19.40;75.11;100238.69;2218100;40;20069;-84
2021/06/07 09:04:52;;;;;;;18.35;12.55;;;;;;;19.48;74.53;100245.84;2219324;40;20053;-83
2021/06/07 09:06:25;;;;;;;14.77;11.88;;;;;;;19.51;74.96;100242.72;2204293;39;20038;-82
2021/06/07 09:08:02;;;;;;;17.55;12.18;;;;;;;19.57;74.50;100243.78;2211014;40;20034;-83
2021/06/07 09:09:33;;;;;;;16.35;13.15;;;;;;;19.58;74.33;100242.75;2216246;40;20076;-83
2021/06/07 09:11:11;;;;;;;18.58;13.55;;;;;;;19.59;74.19;100242.59;2218832;40;20044;-83
2021/06/07 09:12:43;;;;;;;20.13;13.90;;;;;;;19.59;74.19;100242.59;2215079;40;20048;-82
2021/06/07 09:14:20;;;;;;;23.08;17.05;;;;;;;19.58;74.13;100243.63;2231233;40;20029;-84
2021/06/07 09:15:52;;;;;;;15.85;13.15;;;;;;;19.46;74.74;100243.31;2173441;40;20035;-82
2021/06/07 09:17:24;;;;;;;17.02;12.02;;;;;;;19.49;74.51;100237.50;2215903;40;20033;-82
2021/06/07 09:18:55;;;;;;;18.98;14.90;;;;;;;19.57;74.65;100238.38;2218154;40;20107;-83
2021/06/07 09:20:29;;;;;;;19.88;16.00;;;;;;;19.52;74.14;100236.25;2220064;40;20058;-85
2021/06/07 09:22:22;;;;;;;22.02;15.82;;;;;;;19.48;74.50;100233.13;2163891;40;20035;-84
2021/06/07 09:23:56;;;;;;;19.90;15.70;;;;;;;19.45;74.79;100241.66;2219761;40;20042;-80
2021/06/07 09:25:29;;;;;;;18.88;14.63;;;;;;;19.44;74.79;100233.72;2176372;39;20039;-81
2021/06/07 09:27:08;;;;;;;19.90;13.95;;;;;;;19.37;74.97;100232.84;2218021;40;20034;-82
2021/06/07 09:28:39;;;;;;;19.15;13.77;;;;;;;19.36;75.34;100242.00;2202610;40;20054;-80
2021/06/07 09:30:29;;;;;;;20.77;15.38;;;;;;;19.32;75.24;100236.97;2218910;39;20218;-79
2021/06/07 09:32:01;;;;;;;20.37;15.90;;;;;;;19.29;75.55;100236.53;2220340;40;20033;-80
2021/06/07 09:33:37;;;;;;;18.38;14.07;;;;;;;19.29;75.67;100239.22;2219071;40;20057;-80
2021/06/07 09:35:09;;;;;;;18.10;14.75;;;;;;;19.27;75.65;100233.19;2229831;40;20049;-79
2021/06/07 09:36:41;;;;;;;22.35;16.63;;;;;;;19.27;75.75;100238.63;2227734;39;20041;-80
2021/06/07 09:38:13;;;;;;;21.85;15.40;;;;;;;19.25;76.04;100237.97;2233847;40;20032;-80
2021/06/07 09:39:44;;;;;;;22.40;16.65;;;;;;;19.27;75.95;100244.03;2197355;39;20089;-82
2021/06/07 09:41:15;;;;;;;15.85;12.20;;;;;;;19.29;76.07;100239.22;2232060;40;20143;-83
2021/06/07 09:42:58;;;;;;;16.40;12.88;;;;;;;19.32;75.89;100241.56;2234433;40;20036;-83
2021/06/07 09:44:34;;;;;;;13.65;11.45;;;;;;;19.35;75.76;100243.88;2232663;40;20114;-83
2021/06/07 09:46:08;;;;;;;16.45;13.30;;;;;;;19.35;75.79;100235.75;2231407;39;20043;-83
2021/06/07 09:47:39;;;;;;;18.40;11.77;;;;;;;19.38;76.02;100239.94;2213594;40;20651;-83
2021/06/07 09:49:13;;;;;;;18.83;13.30;;;;;;;19.39;75.78;100242.44;2177093;40;20062;-83
2021/06/07 09:50:55;;;;;;;16.35;13.15;;;;;;;19.42;75.65;100241.19;2220354;40;20026;-84
2021/06/07 09:52:29;;;;;;;15.82;12.82;;;;;;;19.43;75.69;100241.00;2211590;40;20087;-85
2021/06/07 09:53:59;;;;;;;17.58;14.02;;;;;;;19.48;75.80;100241.25;2225944;40;20041;-82
2021/06/07 09:55:31;;;;;;;18.30;13.57;;;;;;;19.49;75.75;100239.38;2191887;40;20424;-83
2021/06/07 09:57:02;;;;;;;18.13;13.45;;;;;;;19.53;75.72;100237.94;2225755;40;20033;-79
2021/06/07 09:58:36;;;;;;;19.38;14.18;;;;;;;19.54;75.33;100241.50;2231301;40;20201;-80